Terminal Aerodrome Forecast
Issued by NWS

Home | Current Version | Previous Version | Text Only | Print | Product List | Glossary On
Versions: 1 2 3 4 5 6 7 8 9 10 11 12 13 14
000
FTUS44 KOUN 240108 AAA
TAFWWR
TAF AMD
KWWR 240108Z 2401/2424 16023G32KT P6SM SCT060 OVC150
     FM240900 31022G31KT P6SM BKN025
     FM241100 34022G30KT P6SM BKN080
     FM241800 34017G25KT P6SM SCT250=

USA.gov is the U.S. government's official web portal to all federal, state and local government web resources and services.